createdAt,value
2016-08-13T00:00:02.231Z,16
2016-08-13T00:00:12.230Z,16
2016-08-13T00:00:22.228Z,16
2016-08-13T00:00:32.231Z,16.1
2016-08-13T00:00:42.233Z,16.1
2016-08-13T00:00:52.233Z,16.1
2016-08-13T00:01:02.234Z,16
2016-08-13T00:01:12.234Z,16
2016-08-13T00:01:22.234Z,16
2016-08-13T00:01:32.238Z,16.1
2016-08-13T00:01:42.235Z,16
2016-08-13T00:01:52.233Z,16.1
2016-08-13T00:02:02.231Z,16
2016-08-13T00:02:12.233Z,16.1
2016-08-13T00:02:22.234Z,16.1
2016-08-13T00:02:32.234Z,16.1
2016-08-13T00:02:42.237Z,16.1
2016-08-13T00:02:52.233Z,16.1
2016-08-13T00:03:02.232Z,16.1
2016-08-13T00:03:12.232Z,16
2016-08-13T00:03:22.234Z,16.1
2016-08-13T00:03:32.233Z,16.1
2016-08-13T00:03:42.235Z,16.1
2016-08-13T00:03:52.234Z,16.2
2016-08-13T00:04:02.237Z,16.1
2016-08-13T00:04:12.237Z,16
2016-08-13T00:04:22.237Z,16.2
2016-08-13T00:04:32.237Z,16.1
2016-08-13T00:04:42.236Z,16.1
2016-08-13T00:04:52.237Z,16.1
2016-08-13T00:05:02.237Z,16.1
2016-08-13T00:05:12.240Z,16.1
2016-08-13T00:05:22.238Z,16
2016-08-13T00:05:32.238Z,16.1
2016-08-13T00:05:42.238Z,16.1
2016-08-13T00:05:52.238Z,16.1
2016-08-13T00:06:02.240Z,16.1
2016-08-13T00:06:12.239Z,16.1
2016-08-13T00:06:22.240Z,16.2
2016-08-13T00:06:32.239Z,16.2
2016-08-13T00:06:42.240Z,16.1
2016-08-13T00:06:52.241Z,16
2016-08-13T00:07:02.241Z,16.1
2016-08-13T00:07:12.241Z,16.1
2016-08-13T00:07:22.241Z,16.1
2016-08-13T00:07:32.240Z,16.1
2016-08-13T00:07:42.242Z,16.1
2016-08-13T00:07:52.245Z,16
2016-08-13T00:08:02.243Z,16.1
2016-08-13T00:08:12.243Z,16.1
2016-08-13T00:08:22.243Z,16.2
2016-08-13T00:08:32.243Z,16.1
2016-08-13T00:08:42.246Z,16.2
2016-08-13T00:08:52.243Z,16.1
2016-08-13T00:09:02.245Z,16.1
2016-08-13T00:09:12.246Z,16.2
2016-08-13T00:09:22.247Z,16.1
2016-08-13T00:09:32.244Z,16.2
2016-08-13T00:09:42.244Z,16
2016-08-13T00:09:52.244Z,16.1
2016-08-13T00:10:02.247Z,16.1
2016-08-13T00:10:12.246Z,16.1
2016-08-13T00:10:22.247Z,16.1
2016-08-13T00:10:32.248Z,16.1
2016-08-13T00:10:42.247Z,16.1
2016-08-13T00:10:52.249Z,16.2
2016-08-13T00:11:02.249Z,16.2
2016-08-13T00:11:12.248Z,16.1
2016-08-13T00:11:22.249Z,16.1
2016-08-13T00:11:32.251Z,16.1
2016-08-13T00:11:42.255Z,16
2016-08-13T00:11:52.253Z,16.1
2016-08-13T00:12:02.250Z,16.1
2016-08-13T00:12:12.250Z,16.1
2016-08-13T00:12:22.252Z,16
2016-08-13T00:12:32.253Z,16
2016-08-13T00:12:42.252Z,16
2016-08-13T00:12:52.254Z,16
2016-08-13T00:13:02.255Z,15.9
2016-08-13T00:13:12.253Z,16
2016-08-13T00:13:22.253Z,16
2016-08-13T00:13:32.257Z,16.1
2016-08-13T00:13:42.254Z,16
2016-08-13T00:13:52.256Z,16.1
2016-08-13T00:14:02.254Z,16.1
2016-08-13T00:14:12.254Z,16.1
2016-08-13T00:14:22.256Z,16
2016-08-13T00:14:32.256Z,16
2016-08-13T00:14:42.258Z,16.1
2016-08-13T00:14:52.263Z,16
2016-08-13T00:15:02.256Z,16.1
2016-08-13T00:15:12.256Z,16.1
2016-08-13T00:15:22.255Z,16
2016-08-13T00:15:32.260Z,16.2
2016-08-13T00:15:42.259Z,16.1
2016-08-13T00:15:52.260Z,16.1
2016-08-13T00:16:02.259Z,16.2
2016-08-13T00:16:12.260Z,16.1
2016-08-13T00:16:22.261Z,16.1
2016-08-13T00:16:32.259Z,16.1
2016-08-13T00:16:42.262Z,16.2
2016-08-13T00:16:52.260Z,16.1
2016-08-13T00:17:02.261Z,16.1
2016-08-13T00:17:12.261Z,16.1
2016-08-13T00:17:22.261Z,16
2016-08-13T00:17:32.260Z,16
2016-08-13T00:17:42.262Z,16
2016-08-13T00:17:52.263Z,16
2016-08-13T00:18:02.272Z,16
2016-08-13T00:18:12.262Z,16
2016-08-13T00:18:22.263Z,16
2016-08-13T00:18:32.262Z,16
2016-08-13T00:18:42.263Z,16
2016-08-13T00:18:52.265Z,16
2016-08-13T00:19:02.263Z,16
2016-08-13T00:19:12.265Z,16
2016-08-13T00:19:22.266Z,16.1
2016-08-13T00:19:32.264Z,16
2016-08-13T00:19:42.266Z,16
2016-08-13T00:19:52.265Z,16.1
2016-08-13T00:20:02.266Z,16
2016-08-13T00:20:12.267Z,16
2016-08-13T00:20:22.267Z,16
2016-08-13T00:20:32.267Z,16
2016-08-13T00:20:42.268Z,15.9
2016-08-13T00:20:52.268Z,15.9
2016-08-13T00:21:02.270Z,15.9
2016-08-13T00:21:12.269Z,15.9
2016-08-13T00:21:22.269Z,16
2016-08-13T00:21:32.271Z,16
2016-08-13T00:21:42.268Z,16
2016-08-13T00:21:52.271Z,16
2016-08-13T00:22:02.270Z,16
2016-08-13T00:22:12.268Z,16.1
2016-08-13T00:22:22.269Z,16.1
2016-08-13T00:22:32.274Z,16.1
2016-08-13T00:22:42.272Z,16
2016-08-13T00:22:52.271Z,16
2016-08-13T00:23:02.273Z,16
2016-08-13T00:23:12.273Z,16
2016-08-13T00:23:22.273Z,16
2016-08-13T00:23:32.274Z,16
2016-08-13T00:23:42.272Z,16
2016-08-13T00:23:52.277Z,15.9
2016-08-13T00:24:02.275Z,16
2016-08-13T00:24:12.275Z,15.9
2016-08-13T00:24:22.274Z,15.9
2016-08-13T00:24:32.274Z,16
2016-08-13T00:24:42.275Z,16
2016-08-13T00:24:52.276Z,16
2016-08-13T00:25:02.277Z,16
2016-08-13T00:25:12.275Z,16.1
2016-08-13T00:25:22.277Z,16.1
2016-08-13T00:25:32.275Z,16.1
2016-08-13T00:25:42.276Z,16.1
2016-08-13T00:25:52.275Z,16.1
2016-08-13T00:26:02.276Z,16.1
2016-08-13T00:26:12.278Z,16
2016-08-13T00:26:22.278Z,16
2016-08-13T00:26:32.281Z,16.1
2016-08-13T00:26:42.278Z,16.1
2016-08-13T00:26:52.279Z,16.1
2016-08-13T00:27:02.280Z,16.1
2016-08-13T00:27:12.281Z,16.1
2016-08-13T00:27:22.280Z,16.1
2016-08-13T00:27:32.278Z,16.1
2016-08-13T00:27:42.279Z,16.1
2016-08-13T00:27:52.283Z,16.1
2016-08-13T00:28:02.281Z,16.2
2016-08-13T00:28:12.282Z,16.2
2016-08-13T00:28:22.282Z,16.1
2016-08-13T00:28:32.283Z,16.1
2016-08-13T00:28:42.285Z,16
2016-08-13T00:28:52.283Z,16.1
2016-08-13T00:29:02.284Z,16.1
2016-08-13T00:29:12.285Z,16.1
2016-08-13T00:29:22.283Z,16.1
2016-08-13T00:29:32.285Z,16.1
2016-08-13T00:29:42.284Z,16.2
2016-08-13T00:29:52.287Z,16.2
2016-08-13T00:30:02.288Z,16.2
2016-08-13T00:30:12.286Z,16.2
2016-08-13T00:30:22.287Z,16.2
2016-08-13T00:30:32.285Z,16.1
2016-08-13T00:30:42.289Z,16.2
2016-08-13T00:30:52.289Z,16.2
2016-08-13T00:31:02.287Z,16.1
2016-08-13T00:31:12.287Z,16.2
2016-08-13T00:31:22.296Z,16.2
2016-08-13T00:31:32.290Z,16.2
2016-08-13T00:31:42.291Z,16.1
2016-08-13T00:31:52.289Z,16.1
2016-08-13T00:32:02.288Z,16.1
2016-08-13T00:32:12.291Z,16.1
2016-08-13T00:32:22.289Z,16.2
2016-08-13T00:32:32.291Z,16.2
2016-08-13T00:32:42.291Z,16.2
2016-08-13T00:32:52.290Z,16.2
2016-08-13T00:33:02.292Z,16.3
2016-08-13T00:33:12.292Z,16.2
2016-08-13T00:33:22.293Z,16.2
2016-08-13T00:33:32.290Z,16.2
2016-08-13T00:33:42.291Z,16.2
2016-08-13T00:33:52.296Z,16.2
2016-08-13T00:34:02.294Z,16.2
2016-08-13T00:34:12.297Z,16.2
2016-08-13T00:34:22.294Z,16.2
2016-08-13T00:34:32.295Z,16.1
2016-08-13T00:34:42.296Z,16.2
2016-08-13T00:34:52.294Z,16.2
2016-08-13T00:35:02.296Z,16.1
2016-08-13T00:35:12.297Z,16.1
2016-08-13T00:35:22.298Z,16.2
2016-08-13T00:35:32.295Z,16.2
2016-08-13T00:35:42.297Z,16.2
2016-08-13T00:35:52.298Z,16.2
2016-08-13T00:36:02.297Z,16.2
2016-08-13T00:36:12.297Z,16.2
2016-08-13T00:36:22.297Z,16.2
2016-08-13T00:36:32.300Z,16
2016-08-13T00:36:42.304Z,16.2
2016-08-13T00:36:52.299Z,16.2
2016-08-13T00:37:02.299Z,16.2
2016-08-13T00:37:12.301Z,16.2
2016-08-13T00:37:22.301Z,16.2
2016-08-13T00:37:32.300Z,16
2016-08-13T00:37:42.301Z,16.2
2016-08-13T00:37:52.302Z,16.2
2016-08-13T00:38:02.300Z,16
2016-08-13T00:38:12.303Z,16.1
2016-08-13T00:38:22.301Z,16
2016-08-13T00:38:32.303Z,16.1
2016-08-13T00:38:42.304Z,16
2016-08-13T00:38:52.303Z,16.1
2016-08-13T00:39:02.303Z,16.1
2016-08-13T00:39:12.304Z,16.1
2016-08-13T00:39:22.306Z,16.1
2016-08-13T00:39:32.305Z,16
2016-08-13T00:39:42.305Z,16.1
2016-08-13T00:39:52.306Z,16.1
2016-08-13T00:40:02.304Z,16
2016-08-13T00:40:12.307Z,16.1
2016-08-13T00:40:22.305Z,16
2016-08-13T00:40:32.308Z,16
2016-08-13T00:40:42.306Z,16
2016-08-13T00:40:52.307Z,16
2016-08-13T00:41:02.309Z,16.1
2016-08-13T00:41:12.307Z,16
2016-08-13T00:41:22.312Z,16
2016-08-13T00:41:32.310Z,16
2016-08-13T00:41:42.308Z,16
2016-08-13T00:41:52.315Z,16.1
2016-08-13T00:42:02.313Z,16
2016-08-13T00:42:12.321Z,16
2016-08-13T00:42:22.311Z,16.1
2016-08-13T00:42:32.312Z,16.1
2016-08-13T00:42:42.311Z,16.1
2016-08-13T00:42:52.314Z,16
2016-08-13T00:43:02.317Z,16
2016-08-13T00:43:12.314Z,16
2016-08-13T00:43:22.316Z,16.1
2016-08-13T00:43:32.315Z,16
2016-08-13T00:43:42.318Z,16
2016-08-13T00:43:52.317Z,16
2016-08-13T00:44:02.317Z,15.9
2016-08-13T00:44:12.316Z,15.9
2016-08-13T00:44:22.318Z,15.9
2016-08-13T00:44:32.319Z,16
2016-08-13T00:44:42.315Z,15.9
2016-08-13T00:44:52.319Z,15.9
2016-08-13T00:45:02.319Z,15.9
2016-08-13T00:45:12.320Z,16
2016-08-13T00:45:22.317Z,16
2016-08-13T00:45:32.321Z,16
2016-08-13T00:45:42.319Z,16
2016-08-13T00:45:52.319Z,16
2016-08-13T00:46:02.320Z,16
2016-08-13T00:46:12.323Z,16
2016-08-13T00:46:22.321Z,16
2016-08-13T00:46:32.322Z,16
2016-08-13T00:46:42.328Z,16
2016-08-13T00:46:52.325Z,16
2016-08-13T00:47:02.324Z,16
2016-08-13T00:47:12.321Z,16
2016-08-13T00:47:22.326Z,16
2016-08-13T00:47:32.321Z,16
2016-08-13T00:47:42.323Z,15.9
2016-08-13T00:47:52.321Z,16
2016-08-13T00:48:02.320Z,16
2016-08-13T00:48:12.325Z,15.9
2016-08-13T00:48:22.323Z,16
2016-08-13T00:48:32.329Z,16
2016-08-13T00:48:42.325Z,16
2016-08-13T00:48:52.321Z,16
2016-08-13T00:49:02.326Z,15.9
2016-08-13T00:49:12.326Z,15.9
2016-08-13T00:49:22.325Z,15.9
2016-08-13T00:49:32.324Z,15.9
2016-08-13T00:49:42.327Z,15.9
2016-08-13T00:49:52.328Z,15.9
2016-08-13T00:50:02.327Z,15.9
2016-08-13T00:50:12.324Z,15.9
2016-08-13T00:50:22.324Z,15.9
2016-08-13T00:50:32.328Z,16
2016-08-13T00:50:42.315Z,16
2016-08-13T00:50:52.317Z,15.9
2016-08-13T00:51:02.331Z,15.9
2016-08-13T00:51:12.327Z,16
2016-08-13T00:51:22.316Z,15.9
2016-08-13T00:51:32.330Z,16
2016-08-13T00:51:42.329Z,15.9
2016-08-13T00:51:52.329Z,16
2016-08-13T00:52:02.319Z,15.9
2016-08-13T00:52:12.321Z,15.9
2016-08-13T00:52:22.320Z,16
2016-08-13T00:52:32.328Z,15.9
2016-08-13T00:52:42.322Z,15.9
2016-08-13T00:52:52.319Z,15.8
2016-08-13T00:53:02.322Z,15.8
2016-08-13T00:53:12.333Z,15.9
2016-08-13T00:53:22.330Z,15.8
2016-08-13T00:53:32.334Z,15.9
2016-08-13T00:53:42.331Z,15.9
2016-08-13T00:53:52.333Z,15.9
2016-08-13T00:54:02.331Z,15.8
2016-08-13T00:54:12.332Z,15.8
2016-08-13T00:54:22.334Z,15.8
2016-08-13T00:54:32.335Z,15.8
2016-08-13T00:54:42.334Z,15.9
2016-08-13T00:54:52.334Z,15.8
2016-08-13T00:55:02.344Z,15.8
2016-08-13T00:55:12.337Z,15.9
2016-08-13T00:55:22.335Z,15.8
2016-08-13T00:55:32.337Z,15.8
2016-08-13T00:55:42.336Z,15.8
2016-08-13T00:55:52.337Z,15.9
2016-08-13T00:56:02.338Z,15.8
2016-08-13T00:56:12.338Z,15.8
2016-08-13T00:56:22.337Z,15.9
2016-08-13T00:56:32.337Z,15.9
2016-08-13T00:56:42.337Z,15.8
2016-08-13T00:56:52.341Z,15.8
2016-08-13T00:57:02.339Z,15.8
2016-08-13T00:57:12.341Z,15.8
2016-08-13T00:57:22.339Z,15.9
2016-08-13T00:57:32.343Z,15.9
2016-08-13T00:57:42.339Z,15.9
2016-08-13T00:57:52.343Z,15.8
2016-08-13T00:58:02.341Z,15.9
2016-08-13T00:58:12.339Z,15.8
2016-08-13T00:58:22.342Z,15.8
2016-08-13T00:58:32.340Z,15.9
2016-08-13T00:58:42.342Z,15.8
2016-08-13T00:58:52.343Z,15.8
2016-08-13T00:59:02.341Z,15.9
2016-08-13T00:59:12.344Z,15.9
2016-08-13T00:59:22.343Z,15.8
2016-08-13T00:59:32.344Z,15.8
2016-08-13T00:59:42.342Z,15.8
2016-08-13T00:59:52.344Z,15.8
2016-08-13T01:00:02.345Z,15.7
2016-08-13T01:00:12.343Z,15.7
2016-08-13T01:00:22.344Z,15.7
2016-08-13T01:00:32.347Z,15.8
2016-08-13T01:00:42.347Z,15.7
2016-08-13T01:00:52.345Z,15.7
2016-08-13T01:01:02.347Z,15.8
2016-08-13T01:01:12.347Z,15.7
2016-08-13T01:01:22.347Z,15.7
2016-08-13T01:01:32.349Z,15.8
2016-08-13T01:01:42.347Z,15.8
2016-08-13T01:01:52.348Z,15.8
2016-08-13T01:02:02.348Z,15.7
2016-08-13T01:02:12.350Z,15.7
2016-08-13T01:02:22.348Z,15.7
2016-08-13T01:02:32.352Z,15.7
2016-08-13T01:02:42.351Z,15.7
2016-08-13T01:02:52.361Z,15.7
2016-08-13T01:03:02.349Z,15.7
2016-08-13T01:03:12.348Z,15.8
2016-08-13T01:03:22.350Z,15.6
2016-08-13T01:03:32.349Z,15.6
2016-08-13T01:03:42.350Z,15.6
2016-08-13T01:03:52.350Z,15.6
2016-08-13T01:04:02.351Z,15.6
2016-08-13T01:04:12.352Z,15.7
2016-08-13T01:04:22.353Z,15.7
2016-08-13T01:04:32.351Z,15.7
2016-08-13T01:04:42.353Z,15.6
2016-08-13T01:04:52.354Z,15.6
2016-08-13T01:05:02.356Z,15.6
2016-08-13T01:05:12.356Z,15.6
2016-08-13T01:05:22.356Z,15.6
2016-08-13T01:05:32.355Z,15.7
2016-08-13T01:05:42.353Z,15.6
2016-08-13T01:05:52.353Z,15.7
2016-08-13T01:06:02.357Z,15.7
2016-08-13T01:06:12.355Z,15.7
2016-08-13T01:06:22.361Z,15.7
2016-08-13T01:06:32.356Z,15.7
2016-08-13T01:06:42.356Z,15.7
2016-08-13T01:06:52.356Z,15.7
2016-08-13T01:07:02.359Z,15.6
2016-08-13T01:07:12.358Z,15.6
2016-08-13T01:07:22.355Z,15.6
2016-08-13T01:07:32.359Z,15.7
2016-08-13T01:07:42.358Z,15.7
2016-08-13T01:07:52.358Z,15.7
2016-08-13T01:08:02.359Z,15.8
2016-08-13T01:08:12.362Z,15.7
2016-08-13T01:08:22.361Z,15.6
2016-08-13T01:08:32.362Z,15.7
2016-08-13T01:08:42.361Z,15.6
2016-08-13T01:08:52.361Z,15.6
2016-08-13T01:09:02.361Z,15.7
2016-08-13T01:09:12.362Z,15.6
2016-08-13T01:09:22.364Z,15.7
2016-08-13T01:09:32.362Z,15.7
2016-08-13T01:09:42.362Z,15.6
2016-08-13T01:09:52.362Z,15.6
2016-08-13T01:10:02.362Z,15.7
2016-08-13T01:10:12.363Z,15.6
2016-08-13T01:10:22.364Z,15.7
2016-08-13T01:10:32.365Z,15.6
2016-08-13T01:10:42.364Z,15.7
2016-08-13T01:10:52.363Z,15.6
2016-08-13T01:11:02.365Z,15.7
2016-08-13T01:11:12.366Z,15.6
2016-08-13T01:11:22.365Z,15.6
2016-08-13T01:11:32.367Z,15.6
2016-08-13T01:11:42.366Z,15.7
2016-08-13T01:11:52.366Z,15.8
2016-08-13T01:12:02.367Z,15.6
2016-08-13T01:12:12.368Z,15.7
2016-08-13T01:12:22.365Z,15.7
2016-08-13T01:12:32.369Z,15.6
2016-08-13T01:12:42.373Z,15.6
2016-08-13T01:12:52.368Z,15.6
2016-08-13T01:13:02.369Z,15.6
2016-08-13T01:13:12.367Z,15.5
2016-08-13T01:13:22.369Z,15.6
2016-08-13T01:13:32.370Z,15.6
2016-08-13T01:13:42.368Z,15.5
2016-08-13T01:13:52.370Z,15.5
2016-08-13T01:14:02.371Z,15.5
2016-08-13T01:14:12.368Z,15.5
2016-08-13T01:14:22.372Z,15.5
2016-08-13T01:14:32.373Z,15.5
2016-08-13T01:14:42.372Z,15.6
2016-08-13T01:14:52.371Z,15.6
2016-08-13T01:15:02.373Z,15.4
2016-08-13T01:15:12.371Z,15.6
2016-08-13T01:15:22.372Z,15.5
2016-08-13T01:15:32.372Z,15.5
2016-08-13T01:15:42.372Z,15.5
2016-08-13T01:15:52.372Z,15.5
2016-08-13T01:16:02.373Z,15.5
2016-08-13T01:16:12.377Z,15.5
2016-08-13T01:16:22.372Z,15.6
2016-08-13T01:16:32.376Z,15.5
2016-08-13T01:16:42.375Z,15.5
2016-08-13T01:16:52.376Z,15.5
2016-08-13T01:17:02.375Z,15.5
2016-08-13T01:17:12.377Z,15.5
2016-08-13T01:17:22.375Z,15.5
2016-08-13T01:17:32.378Z,15.5
2016-08-13T01:17:42.376Z,15.5
2016-08-13T01:17:52.378Z,15.5
2016-08-13T01:18:02.378Z,15.5
2016-08-13T01:18:12.377Z,15.5
2016-08-13T01:18:22.376Z,15.5
2016-08-13T01:18:32.378Z,15.5
2016-08-13T01:18:42.378Z,15.5
2016-08-13T01:18:52.381Z,15.5
2016-08-13T01:19:02.379Z,15.5
2016-08-13T01:19:12.378Z,15.5
2016-08-13T01:19:22.378Z,15.5
2016-08-13T01:19:32.381Z,15.5
2016-08-13T01:19:42.380Z,15.5
2016-08-13T01:19:52.385Z,15.5
2016-08-13T01:20:02.380Z,15.6
2016-08-13T01:20:12.382Z,15.5
2016-08-13T01:20:22.382Z,15.4
2016-08-13T01:20:32.382Z,15.4
2016-08-13T01:20:42.382Z,15.5
2016-08-13T01:20:52.383Z,15.5
2016-08-13T01:21:02.387Z,15.5
2016-08-13T01:21:12.384Z,15.5
2016-08-13T01:21:22.382Z,15.5
2016-08-13T01:21:32.382Z,15.5
2016-08-13T01:21:42.381Z,15.5
2016-08-13T01:21:52.384Z,15.4
2016-08-13T01:22:02.385Z,15.5
2016-08-13T01:22:12.385Z,15.5
2016-08-13T01:22:22.384Z,15.5
2016-08-13T01:22:32.387Z,15.5
2016-08-13T01:22:42.386Z,15.5
2016-08-13T01:22:52.392Z,15.5
2016-08-13T01:23:02.388Z,15.5
2016-08-13T01:23:12.384Z,15.4
2016-08-13T01:23:22.388Z,15.5
2016-08-13T01:23:32.385Z,15.5
2016-08-13T01:23:42.386Z,15.6
2016-08-13T01:23:52.387Z,15.5
2016-08-13T01:24:02.387Z,15.4
2016-08-13T01:24:12.388Z,15.5
2016-08-13T01:24:22.387Z,15.5
2016-08-13T01:24:32.388Z,15.5
2016-08-13T01:24:42.390Z,15.6
2016-08-13T01:24:52.390Z,15.5
2016-08-13T01:25:02.390Z,15.4
2016-08-13T01:25:12.392Z,15.6
2016-08-13T01:25:22.388Z,15.5
2016-08-13T01:25:32.393Z,15.5
2016-08-13T01:25:42.390Z,15.5
2016-08-13T01:25:52.391Z,15.5
2016-08-13T01:26:02.392Z,15.5
2016-08-13T01:26:12.390Z,15.4
2016-08-13T01:26:22.392Z,15.4
2016-08-13T01:26:32.394Z,15.4
2016-08-13T01:26:42.392Z,15.5
2016-08-13T01:26:52.393Z,15.4
2016-08-13T01:27:02.393Z,15.4
2016-08-13T01:27:12.392Z,15.4
2016-08-13T01:27:22.395Z,15.4
2016-08-13T01:27:32.394Z,15.5
2016-08-13T01:27:42.393Z,15.4
2016-08-13T01:27:52.396Z,15.5
2016-08-13T01:28:02.396Z,15.5
2016-08-13T01:28:12.394Z,15.5
2016-08-13T01:28:22.394Z,15.5
2016-08-13T01:28:32.397Z,15.5
2016-08-13T01:28:42.394Z,15.4
2016-08-13T01:28:52.397Z,15.4
2016-08-13T01:29:02.398Z,15.4
2016-08-13T01:29:12.396Z,15.4
2016-08-13T01:29:22.398Z,15.4
2016-08-13T01:29:32.400Z,15.4
2016-08-13T01:29:42.395Z,15.5
2016-08-13T01:29:52.403Z,15.5
2016-08-13T01:30:02.398Z,15.5
2016-08-13T01:30:12.398Z,15.4
2016-08-13T01:30:22.399Z,15.5
2016-08-13T01:30:32.398Z,15.5
2016-08-13T01:30:42.399Z,15.5
2016-08-13T01:30:52.399Z,15.4
2016-08-13T01:31:02.399Z,15.4
2016-08-13T01:31:12.402Z,15.4
2016-08-13T01:31:22.402Z,15.5
2016-08-13T01:31:32.398Z,15.4
2016-08-13T01:31:42.401Z,15.4
2016-08-13T01:31:52.401Z,15.4
2016-08-13T01:32:02.402Z,15.4
2016-08-13T01:32:12.401Z,15.4
2016-08-13T01:32:22.401Z,15.4
2016-08-13T01:32:32.401Z,15.4
2016-08-13T01:32:42.403Z,15.3
2016-08-13T01:32:52.406Z,15.4
2016-08-13T01:33:02.404Z,15.4
2016-08-13T01:33:12.404Z,15.4
2016-08-13T01:33:22.402Z,15.3
2016-08-13T01:33:32.404Z,15.4
2016-08-13T01:33:42.407Z,15.4
2016-08-13T01:33:52.408Z,15.4
2016-08-13T01:34:02.405Z,15.4
2016-08-13T01:34:12.406Z,15.4
2016-08-13T01:34:22.405Z,15.4
2016-08-13T01:34:32.409Z,15.4
2016-08-13T01:34:42.405Z,15.4
2016-08-13T01:34:52.406Z,15.4
2016-08-13T01:35:02.405Z,15.4
2016-08-13T01:35:12.408Z,15.4
2016-08-13T01:35:22.410Z,15.4
2016-08-13T01:35:32.408Z,15.5
2016-08-13T01:35:42.407Z,15.4
2016-08-13T01:35:52.407Z,15.4
2016-08-13T01:36:02.409Z,15.4
2016-08-13T01:36:12.414Z,15.3
2016-08-13T01:36:22.410Z,15.4
2016-08-13T01:36:32.409Z,15.4
2016-08-13T01:36:42.410Z,15.4
2016-08-13T01:36:52.408Z,15.4
2016-08-13T01:37:02.410Z,15.4
2016-08-13T01:37:12.410Z,15.4
2016-08-13T01:37:22.411Z,15.4
2016-08-13T01:37:32.411Z,15.4
2016-08-13T01:37:42.408Z,15.4
2016-08-13T01:37:52.405Z,15.3
2016-08-13T01:38:02.412Z,15.4
2016-08-13T01:38:12.410Z,15.4
2016-08-13T01:38:22.410Z,15.4
2016-08-13T01:38:32.412Z,15.4
2016-08-13T01:38:42.407Z,15.3
2016-08-13T01:38:52.412Z,15.3
2016-08-13T01:39:02.399Z,15.4
2016-08-13T01:39:12.400Z,15.4
2016-08-13T01:39:22.401Z,15.4
2016-08-13T01:39:32.411Z,15.5
2016-08-13T01:39:42.403Z,15.4
2016-08-13T01:39:52.403Z,15.4
2016-08-13T01:40:02.414Z,15.4
2016-08-13T01:40:12.402Z,15.4
2016-08-13T01:40:22.405Z,15.4
2016-08-13T01:40:32.404Z,15.3
2016-08-13T01:40:42.405Z,15.3
2016-08-13T01:40:52.404Z,15.3
2016-08-13T01:41:02.405Z,15.3
2016-08-13T01:41:12.405Z,15.3
2016-08-13T01:41:22.415Z,15.3
2016-08-13T01:41:32.418Z,15.3
2016-08-13T01:41:42.415Z,15.3
2016-08-13T01:41:52.416Z,15.3
2016-08-13T01:42:02.419Z,15.3
2016-08-13T01:42:12.417Z,15.4
2016-08-13T01:42:22.419Z,15.3
2016-08-13T01:42:32.418Z,15.3
2016-08-13T01:42:42.417Z,15.3
2016-08-13T01:42:52.417Z,15.3
2016-08-13T01:43:02.417Z,15.3
2016-08-13T01:43:12.418Z,15.3
2016-08-13T01:43:22.420Z,15.3
2016-08-13T01:43:32.418Z,15.4
2016-08-13T01:43:42.418Z,15.3
2016-08-13T01:43:52.421Z,15.3
2016-08-13T01:44:02.419Z,15.3
2016-08-13T01:44:12.421Z,15.4
2016-08-13T01:44:22.418Z,15.3
2016-08-13T01:44:32.420Z,15.3
2016-08-13T01:44:42.428Z,15.3
2016-08-13T01:44:52.422Z,15.3
2016-08-13T01:45:02.424Z,15.3
2016-08-13T01:45:12.422Z,15.3
2016-08-13T01:45:22.424Z,15.4
2016-08-13T01:45:32.424Z,15.4
2016-08-13T01:45:42.433Z,15.4
2016-08-13T01:45:52.427Z,15.3
2016-08-13T01:46:02.428Z,15.3
2016-08-13T01:46:12.424Z,15.3
2016-08-13T01:46:22.426Z,15.3
2016-08-13T01:46:32.428Z,15.3
2016-08-13T01:46:42.427Z,15.3
2016-08-13T01:46:52.427Z,15.3
2016-08-13T01:47:02.428Z,15.3
2016-08-13T01:47:12.428Z,15.3
2016-08-13T01:47:22.428Z,15.3
2016-08-13T01:47:32.429Z,15.3
2016-08-13T01:47:42.428Z,15.3
2016-08-13T01:47:52.429Z,15.3
2016-08-13T01:48:02.430Z,15.2
2016-08-13T01:48:12.433Z,15.2
2016-08-13T01:48:22.428Z,15.2
2016-08-13T01:48:32.431Z,15.2
2016-08-13T01:48:42.431Z,15.3
2016-08-13T01:48:52.430Z,15.3
2016-08-13T01:49:02.431Z,15.3
2016-08-13T01:49:12.429Z,15.3
2016-08-13T01:49:22.431Z,15.3
2016-08-13T01:49:32.432Z,15.3
2016-08-13T01:49:42.433Z,15.2
2016-08-13T01:49:52.434Z,15.3
2016-08-13T01:50:02.442Z,15.2
2016-08-13T01:50:12.434Z,15.2
2016-08-13T01:50:22.434Z,15.3
2016-08-13T01:50:32.433Z,15.3
2016-08-13T01:50:42.433Z,15.2
2016-08-13T01:50:52.433Z,15.2
2016-08-13T01:51:02.433Z,15.2
2016-08-13T01:51:12.434Z,15.2
2016-08-13T01:51:22.434Z,15.3
2016-08-13T01:51:32.436Z,15.3
2016-08-13T01:51:42.433Z,15.3
2016-08-13T01:51:52.437Z,15.3
2016-08-13T01:52:02.434Z,15.4
2016-08-13T01:52:12.435Z,15.3
2016-08-13T01:52:22.440Z,15.3
2016-08-13T01:52:32.437Z,15.2
2016-08-13T01:52:42.436Z,15.3
2016-08-13T01:52:52.436Z,15.3
2016-08-13T01:53:02.437Z,15.3
2016-08-13T01:53:12.437Z,15.3
2016-08-13T01:53:22.438Z,15.3
2016-08-13T01:53:32.440Z,15.3
2016-08-13T01:53:42.438Z,15.3
2016-08-13T01:53:52.438Z,15.3
2016-08-13T01:54:02.440Z,15.3
2016-08-13T01:54:12.437Z,15.3
2016-08-13T01:54:22.440Z,15.3
2016-08-13T01:54:32.439Z,15.3
2016-08-13T01:54:42.439Z,15.2
2016-08-13T01:54:52.441Z,15.3
2016-08-13T01:55:02.440Z,15.4
2016-08-13T01:55:12.441Z,15.3
2016-08-13T01:55:22.440Z,15.3
2016-08-13T01:55:32.440Z,15.3
2016-08-13T01:55:42.440Z,15.3
2016-08-13T01:55:52.440Z,15.3
2016-08-13T01:56:02.440Z,15.4
2016-08-13T01:56:12.452Z,15.3
2016-08-13T01:56:22.441Z,15.3
2016-08-13T01:56:32.446Z,15.3
2016-08-13T01:56:42.447Z,15.3
2016-08-13T01:56:52.444Z,15.3
2016-08-13T01:57:02.441Z,15.4
2016-08-13T01:57:12.443Z,15.4
2016-08-13T01:57:22.443Z,15.3
2016-08-13T01:57:32.443Z,15.4
2016-08-13T01:57:42.443Z,15.4
2016-08-13T01:57:52.444Z,15.4
2016-08-13T01:58:02.445Z,15.4
2016-08-13T01:58:12.442Z,15.3
2016-08-13T01:58:22.445Z,15.4
2016-08-13T01:58:32.446Z,15.4
2016-08-13T01:58:42.443Z,15.3
2016-08-13T01:58:52.447Z,15.3
2016-08-13T01:59:02.447Z,15.3
2016-08-13T01:59:12.447Z,15.3
2016-08-13T01:59:22.447Z,15.3
2016-08-13T01:59:32.444Z,15.3
2016-08-13T01:59:42.448Z,15.3
2016-08-13T01:59:52.449Z,15.3
2016-08-13T02:00:02.447Z,15.3
2016-08-13T02:00:12.447Z,15.3
2016-08-13T02:00:22.447Z,15.3
2016-08-13T02:00:32.447Z,15.3
2016-08-13T02:00:42.449Z,15.2
2016-08-13T02:00:52.446Z,15.3
2016-08-13T02:01:02.452Z,15.3
2016-08-13T02:01:12.450Z,15.3
2016-08-13T02:01:22.449Z,15.3
2016-08-13T02:01:32.451Z,15.3
2016-08-13T02:01:42.450Z,15.3
2016-08-13T02:01:52.450Z,15.3
2016-08-13T02:02:02.451Z,15.3
2016-08-13T02:02:12.450Z,15.3
2016-08-13T02:02:22.449Z,15.3
2016-08-13T02:02:32.450Z,15.4
2016-08-13T02:02:42.451Z,15.3
2016-08-13T02:02:52.451Z,15.3
2016-08-13T02:03:02.451Z,15.4
2016-08-13T02:03:12.452Z,15.3
2016-08-13T02:03:22.453Z,15.3
2016-08-13T02:03:32.453Z,15.3
2016-08-13T02:03:42.452Z,15.3
2016-08-13T02:03:52.453Z,15.3
2016-08-13T02:04:02.455Z,15.2
2016-08-13T02:04:12.453Z,15.2
2016-08-13T02:04:22.452Z,15.2
2016-08-13T02:04:32.453Z,15.3
2016-08-13T02:04:42.454Z,15.3
2016-08-13T02:04:52.452Z,15.3
2016-08-13T02:05:02.455Z,15.3
2016-08-13T02:05:12.455Z,15.2
2016-08-13T02:05:22.454Z,15.2
2016-08-13T02:05:32.454Z,15.2
2016-08-13T02:05:42.455Z,15.2
2016-08-13T02:05:52.454Z,15.2
2016-08-13T02:06:02.456Z,15.2
2016-08-13T02:06:12.455Z,15.2
2016-08-13T02:06:22.456Z,15.2
2016-08-13T02:06:32.456Z,15.2
2016-08-13T02:06:42.455Z,15.2
2016-08-13T02:06:52.457Z,15.2
2016-08-13T02:07:02.457Z,15.2
2016-08-13T02:07:12.460Z,15.3
2016-08-13T02:07:22.455Z,15.3
2016-08-13T02:07:32.458Z,15.2
2016-08-13T02:07:42.458Z,15.2
2016-08-13T02:07:52.460Z,15.2
2016-08-13T02:08:02.457Z,15.2
2016-08-13T02:08:12.459Z,15.2
2016-08-13T02:08:22.459Z,15.3
2016-08-13T02:08:32.459Z,15.3
2016-08-13T02:08:42.460Z,15.2
2016-08-13T02:08:52.459Z,15.2
2016-08-13T02:09:02.460Z,15.3
2016-08-13T02:09:12.461Z,15.3
2016-08-13T02:09:22.458Z,15.3
2016-08-13T02:09:32.462Z,15.3
2016-08-13T02:09:42.461Z,15.3
2016-08-13T02:09:52.460Z,15.2
2016-08-13T02:10:02.463Z,15.2
2016-08-13T02:10:12.461Z,15.2
2016-08-13T02:10:22.463Z,15.3
2016-08-13T02:10:32.462Z,15.3
2016-08-13T02:10:42.462Z,15.2
2016-08-13T02:10:52.463Z,15.3
2016-08-13T02:11:02.462Z,15.3
2016-08-13T02:11:12.463Z,15.3
2016-08-13T02:11:22.463Z,15.2
2016-08-13T02:11:32.465Z,15.2
2016-08-13T02:11:42.463Z,15.1
2016-08-13T02:11:52.466Z,15.2
2016-08-13T02:12:02.463Z,15.2
2016-08-13T02:12:12.478Z,15.2
2016-08-13T02:12:22.471Z,15.2
2016-08-13T02:12:32.466Z,15.2
2016-08-13T02:12:42.463Z,15.3
2016-08-13T02:12:52.466Z,15.2
2016-08-13T02:13:02.464Z,15.1
2016-08-13T02:13:12.467Z,15.2
2016-08-13T02:13:22.465Z,15.2
2016-08-13T02:13:32.464Z,15.2
2016-08-13T02:13:42.466Z,15.1
2016-08-13T02:13:52.465Z,15.2
2016-08-13T02:14:02.469Z,15.1
2016-08-13T02:14:12.468Z,15.2
2016-08-13T02:14:22.466Z,15.2